Time;durP1;ratioP1;P1;durP2;ratioP2;P2;SDS_P1;SDS_P2;PMS_P1;PMS_P2;Temp;Humidity;BMP_temperature;BMP_pressure;BME280_temperature;BME280_humidity;BME280_pressure;Samples;Min_cycle;Max_cycle;Signal;HPM_P1;HPM_P2
2022/07/20 00:01:03;;;;;;;6.00;4.47;;;;;;;21.25;56.53;101574.88;4953286;29;20637;-46
2022/07/20 00:03:29;;;;;;;5.70;4.65;;;;;;;21.18;57.29;101566.28;4952566;29;20597;-45
2022/07/20 00:05:54;;;;;;;5.13;4.55;;;;;;;21.11;57.51;101571.31;4953330;29;20212;-46
2022/07/20 00:11:19;;;;;;;5.47;4.00;;;;;;;21.19;57.34;101559.88;4952768;28;20539;-46
2022/07/20 00:11:22;;;;;;;5.57;4.32;;;;;;;21.07;57.65;101566.19;4953073;29;20206;-44
2022/07/20 00:13:48;;;;;;;4.75;4.20;;;;;;;21.02;58.40;101565.66;4952339;29;20163;-45
2022/07/20 00:16:14;;;;;;;8.45;4.80;;;;;;;21.01;58.39;101558.44;4953199;29;20182;-44
2022/07/20 00:18:39;;;;;;;6.20;4.70;;;;;;;20.99;58.19;101559.44;4953027;28;20181;-44
2022/07/20 00:21:05;;;;;;;5.88;4.50;;;;;;;20.88;59.00;101556.59;4952832;29;20555;-44
2022/07/20 00:23:31;;;;;;;5.82;4.45;;;;;;;20.95;58.66;101562.47;4935123;29;20278;-45
2022/07/20 00:25:56;;;;;;;8.05;4.63;;;;;;;20.98;58.68;101563.13;4952524;29;20230;-45
2022/07/20 00:28:22;;;;;;;5.10;4.60;;;;;;;20.95;59.15;101562.47;4953198;29;20512;-44
2022/07/20 00:30:47;;;;;;;4.75;4.30;;;;;;;21.03;59.14;101557.34;4952870;28;20230;-44
2022/07/20 00:33:12;;;;;;;5.25;4.40;;;;;;;21.04;59.24;101552.78;4952411;29;20767;-42
2022/07/20 00:35:38;;;;;;;6.43;4.82;;;;;;;21.04;59.08;101550.06;4951715;29;20162;-43
2022/07/20 00:38:03;;;;;;;4.72;4.32;;;;;;;21.10;59.14;101549.59;4935567;29;20190;-44
2022/07/20 00:40:29;;;;;;;5.07;4.57;;;;;;;21.02;59.71;101560.19;4952419;28;20281;-45
2022/07/20 00:42:54;;;;;;;4.70;4.30;;;;;;;20.98;59.57;101543.19;4952544;29;20185;-44
2022/07/20 00:45:20;;;;;;;6.10;4.25;;;;;;;20.84;60.24;101546.88;4952188;29;20190;-46
2022/07/20 00:47:47;;;;;;;5.10;4.53;;;;;;;20.74;60.64;101543.91;4952520;29;20185;-45
2022/07/20 00:50:14;;;;;;;5.53;4.55;;;;;;;20.75;60.61;101544.78;4952320;28;20292;-44
2022/07/20 00:52:40;;;;;;;6.18;4.60;;;;;;;20.73;61.04;101541.31;4952589;29;20194;-45
2022/07/20 00:55:07;;;;;;;6.53;4.47;;;;;;;20.69;61.30;101539.78;4952355;28;20182;-47
2022/07/20 00:57:32;;;;;;;6.57;4.90;;;;;;;20.59;61.67;101544.97;4952411;29;20162;-46
2022/07/20 00:59:58;;;;;;;6.90;4.57;;;;;;;20.56;61.60;101539.72;4952499;28;20708;-46
2022/07/20 01:02:24;;;;;;;7.72;4.70;;;;;;;20.48;62.30;101539.38;4952157;29;20159;-47
2022/07/20 01:04:50;;;;;;;5.72;4.85;;;;;;;20.49;62.33;101539.28;4952035;28;20178;-45
2022/07/20 01:07:16;;;;;;;5.65;4.65;;;;;;;20.45;62.29;101537.75;4952615;29;20198;-45
2022/07/20 01:09:42;;;;;;;6.35;4.90;;;;;;;20.41;62.76;101532.63;4952222;28;20269;-45
2022/07/20 01:12:11;;;;;;;4.95;4.50;;;;;;;20.46;62.62;101535.88;4952419;29;20767;-44
2022/07/20 01:14:37;;;;;;;5.50;4.72;;;;;;;20.40;63.04;101528.13;4951818;29;20193;-46
2022/07/20 01:17:03;;;;;;;5.18;4.68;;;;;;;20.47;62.82;101537.66;4952411;29;20170;-46
2022/07/20 01:19:28;;;;;;;5.30;4.80;;;;;;;20.49;62.94;101536.56;4952086;28;20697;-46
2022/07/20 01:21:54;;;;;;;7.40;4.95;;;;;;;20.53;63.19;101521.75;4952234;29;20171;-46
2022/07/20 01:24:20;;;;;;;7.15;5.50;;;;;;;20.63;63.01;101523.88;4951970;29;20174;-48
2022/07/20 01:26:46;;;;;;;6.95;4.72;;;;;;;20.65;62.77;101517.34;4951983;29;20583;-46
2022/07/20 01:29:13;;;;;;;7.90;5.18;;;;;;;20.66;63.04;101521.81;4951975;28;20216;-46
2022/07/20 01:31:39;;;;;;;6.05;5.00;;;;;;;20.74;62.85;101511.25;4952019;29;20206;-46
2022/07/20 01:34:05;;;;;;;6.22;4.82;;;;;;;20.71;63.11;101507.88;4951702;29;20221;-44
2022/07/20 01:36:31;;;;;;;5.53;4.97;;;;;;;20.76;63.12;101512.00;4929531;29;20206;-45
2022/07/20 01:38:56;;;;;;;7.07;5.25;;;;;;;20.79;62.99;101505.47;4953162;28;20241;-44
2022/07/20 01:41:22;;;;;;;6.35;5.07;;;;;;;20.80;62.87;101504.50;4971497;28;20422;-46
2022/07/20 01:43:48;;;;;;;5.78;5.03;;;;;;;20.81;63.13;101508.94;4953757;28;20212;-45
2022/07/20 01:46:13;;;;;;;8.48;5.05;;;;;;;20.79;63.29;101505.47;4951694;29;20198;-45
2022/07/20 01:48:39;;;;;;;7.10;4.80;;;;;;;20.82;63.45;101516.16;4934548;28;20209;-44
2022/07/20 01:51:05;;;;;;;8.95;5.20;;;;;;;20.88;63.29;101504.84;4951701;29;20213;-47
2022/07/20 01:53:30;;;;;;;6.05;5.07;;;;;;;20.83;63.64;101508.84;4951392;29;20266;-47
2022/07/20 01:55:56;;;;;;;10.15;5.45;;;;;;;20.82;63.64;101509.84;4951880;29;20167;-47
2022/07/20 01:58:22;;;;;;;5.47;5.00;;;;;;;20.78;63.71;101501.00;4951680;29;20645;-43
2022/07/20 02:00:49;;;;;;;6.55;4.93;;;;;;;20.78;63.55;101501.88;4951511;28;20217;-44
2022/07/20 02:03:15;;;;;;;5.63;5.13;;;;;;;20.70;64.20;101497.94;4933486;29;20186;-42
2022/07/20 02:05:40;;;;;;;6.18;5.32;;;;;;;20.65;64.18;101497.41;4952158;29;20186;-46
2022/07/20 02:08:06;;;;;;;6.75;4.80;;;;;;;20.69;64.34;101507.97;4951756;29;20173;-43
2022/07/20 02:10:32;;;;;;;7.00;4.97;;;;;;;20.73;64.20;101501.34;4951308;28;20639;-45
2022/07/20 02:12:58;;;;;;;10.63;5.35;;;;;;;20.71;64.08;101497.00;4934457;29;20203;-47
2022/07/20 02:18:10;;;;;;;5.35;4.85;;;;;;;20.69;64.55;101490.78;4954733;29;20243;-48
2022/07/20 02:20:36;;;;;;;5.65;5.03;;;;;;;20.69;64.82;101483.47;4955038;28;20206;-47
2022/07/20 02:23:04;;;;;;;5.72;5.03;;;;;;;20.67;64.69;101484.56;4955024;29;20181;-44
2022/07/20 02:25:30;;;;;;;6.00;5.00;;;;;;;20.63;64.98;101493.91;4955169;29;20210;-46
2022/07/20 02:27:56;;;;;;;9.95;5.15;;;;;;;20.61;64.96;101490.44;4955043;29;20174;-46
2022/07/20 02:30:22;;;;;;;6.95;6.03;;;;;;;20.64;65.26;101496.53;4955054;28;20217;-48
2022/07/20 02:32:47;;;;;;;6.65;5.15;;;;;;;20.65;65.27;101490.09;4954775;29;20190;-46
2022/07/20 02:35:13;;;;;;;7.70;5.30;;;;;;;20.59;65.25;101487.81;4954603;29;20242;-45
2022/07/20 02:37:39;;;;;;;8.23;5.75;;;;;;;20.64;65.17;101484.75;4955127;28;20234;-47
2022/07/20 02:40:05;;;;;;;6.32;5.63;;;;;;;20.57;65.39;101479.78;4954807;28;20258;-47
2022/07/20 02:42:31;;;;;;;8.82;5.90;;;;;;;20.55;65.59;101481.69;4955049;29;20186;-47
2022/07/20 02:44:57;;;;;;;8.27;5.53;;;;;;;20.57;65.74;101477.03;4954693;29;20189;-47
2022/07/20 02:47:22;;;;;;;5.78;5.18;;;;;;;20.60;65.83;101470.50;4954641;29;20189;-50
2022/07/20 02:49:48;;;;;;;6.63;5.43;;;;;;;20.56;65.64;101479.84;4937410;29;20209;-50
2022/07/20 02:52:13;;;;;;;7.35;5.18;;;;;;;20.61;65.42;101474.97;4954632;29;20638;-51
2022/07/20 02:54:39;;;;;;;6.53;5.35;;;;;;;20.54;65.66;101484.50;4954124;29;20181;-50
2022/07/20 02:57:04;;;;;;;6.05;5.47;;;;;;;20.49;65.87;101482.13;4954505;28;20548;-49
2022/07/20 02:59:30;;;;;;;5.75;5.25;;;;;;;20.44;66.32;101477.97;4954264;28;20570;-50
2022/07/20 03:01:55;;;;;;;5.78;5.18;;;;;;;20.42;66.12;101480.78;4954470;29;20213;-47
2022/07/20 03:04:20;;;;;;;7.25;5.20;;;;;;;20.40;66.55;101477.31;4953357;29;20606;-49
2022/07/20 03:06:46;;;;;;;7.53;5.13;;;;;;;20.43;66.18;101476.22;4954173;29;20198;-49
2022/07/20 03:09:11;;;;;;;5.93;5.30;;;;;;;20.40;66.52;101477.31;4953260;28;20206;-49
2022/07/20 03:11:37;;;;;;;6.60;5.45;;;;;;;20.41;66.51;101478.19;4953898;29;20186;-50
2022/07/20 03:14:02;;;;;;;6.47;5.30;;;;;;;20.37;66.46;101480.22;4953472;29;20647;-50
2022/07/20 03:16:28;;;;;;;5.93;4.60;;;;;;;20.34;66.79;101473.16;4953973;29;20174;-49
2022/07/20 03:18:53;;;;;;;6.50;4.90;;;;;;;20.32;66.48;101477.84;4953555;28;20194;-48
2022/07/20 03:21:19;;;;;;;8.27;5.10;;;;;;;20.29;66.68;101469.91;4953868;29;20170;-49
2022/07/20 03:23:44;;;;;;;5.88;5.07;;;;;;;20.28;66.86;101465.41;4953064;29;20174;-50
2022/07/20 03:26:10;;;;;;;6.03;4.90;;;;;;;20.27;66.77;101470.94;4953577;29;20218;-48
2022/07/20 03:28:36;;;;;;;6.25;5.63;;;;;;;20.29;66.68;101467.19;4953103;28;20174;-51
2022/07/20 03:31:01;;;;;;;5.68;5.18;;;;;;;20.30;67.13;101481.66;4953753;29;20623;-50
2022/07/20 03:33:27;;;;;;;11.65;5.50;;;;;;;20.21;67.47;101487.72;4952803;28;20193;-50
2022/07/20 03:35:52;;;;;;;7.10;5.55;;;;;;;20.26;67.05;101486.41;4953583;29;20178;-50
2022/07/20 03:38:18;;;;;;;5.28;4.78;;;;;;;20.26;67.31;101471.94;4959281;28;20204;-49
2022/07/20 03:40:43;;;;;;;6.32;4.90;;;;;;;20.27;66.87;101470.94;4969563;28;20209;-50
2022/07/20 03:43:08;;;;;;;5.90;5.30;;;;;;;20.22;67.58;101468.53;4972309;28;20220;-50
2022/07/20 03:45:34;;;;;;;7.68;5.20;;;;;;;20.25;67.24;101475.66;4962574;28;21004;-48
2022/07/20 03:47:59;;;;;;;9.20;5.53;;;;;;;20.27;66.84;101470.94;4963776;28;20229;-49
2022/07/20 03:50:25;;;;;;;5.82;5.22;;;;;;;20.32;66.84;101463.34;4955038;28;20198;-49
2022/07/20 03:52:51;;;;;;;7.75;5.35;;;;;;;20.35;66.99;101463.13;4972290;28;20182;-48
2022/07/20 03:55:17;;;;;;;8.43;5.15;;;;;;;20.35;66.74;101469.44;4971995;28;20190;-48
2022/07/20 03:57:42;;;;;;;6.28;4.72;;;;;;;20.35;66.65;101471.31;4972142;28;20177;-50
2022/07/20 04:00:08;;;;;;;5.55;4.88;;;;;;;20.41;66.63;101470.88;4972353;28;20197;-49
2022/07/20 04:02:34;;;;;;;6.85;4.90;;;;;;;20.34;67.26;101472.28;4972188;28;20178;-49
2022/07/20 04:04:59;;;;;;;5.47;4.93;;;;;;;20.38;66.74;101473.81;4971845;28;20253;-48
2022/07/20 04:07:25;;;;;;;5.65;4.80;;;;;;;20.42;66.90;101472.59;4972763;28;20180;-49
2022/07/20 04:09:50;;;;;;;6.57;4.88;;;;;;;20.40;66.83;101474.59;4954816;28;20201;-51
2022/07/20 04:12:22;;;;;;;7.72;5.43;;;;;;;20.51;66.21;101463.81;4972341;28;20173;-50
2022/07/20 04:14:51;;;;;;;5.32;4.60;;;;;;;20.47;66.44;101467.75;4971800;28;20522;-50
2022/07/20 04:17:18;;;;;;;7.30;5.45;;;;;;;20.51;66.10;101474.72;4972080;28;20166;-50
2022/07/20 04:19:44;;;;;;;9.27;5.10;;;;;;;20.60;66.03;101477.78;4971772;28;20244;-49
2022/07/20 04:22:09;;;;;;;10.07;5.43;;;;;;;20.67;65.76;101474.53;4971871;28;20594;-49
2022/07/20 04:24:35;;;;;;;6.60;5.30;;;;;;;20.67;65.61;101468.22;4952056;28;20208;-49
2022/07/20 04:27:01;;;;;;;7.47;5.63;;;;;;;20.64;65.95;101473.88;4952406;29;20197;-50
2022/07/20 04:29:27;;;;;;;7.85;4.88;;;;;;;20.63;65.81;101467.56;4952373;29;20200;-49
2022/07/20 04:31:53;;;;;;;5.78;5.20;;;;;;;20.62;66.23;101476.72;4952552;29;20178;-51
2022/07/20 04:34:18;;;;;;;7.95;5.20;;;;;;;20.62;66.12;101470.38;4951952;29;20170;-49
2022/07/20 04:36:44;;;;;;;9.98;5.30;;;;;;;20.70;65.55;101473.44;4952714;29;20162;-50
2022/07/20 04:39:09;;;;;;;6.70;5.28;;;;;;;20.79;65.43;101472.78;4951763;28;20465;-52
2022/07/20 04:41:35;;;;;;;8.55;4.88;;;;;;;20.83;65.09;101463.41;4952005;29;20174;-49
2022/07/20 04:44:00;;;;;;;9.13;4.68;;;;;;;20.93;65.02;101460.91;4951637;28;20193;-50
2022/07/20 04:46:26;;;;;;;5.35;4.85;;;;;;;20.93;65.39;101472.69;4952240;29;20195;-50
2022/07/20 04:48:51;;;;;;;5.20;4.70;;;;;;;21.08;64.71;101467.09;4952393;29;20198;-50
2022/07/20 04:51:17;;;;;;;5.72;5.13;;;;;;;21.11;64.75;101470.47;4934868;29;20175;-51
2022/07/20 04:53:43;;;;;;;6.93;4.90;;;;;;;21.19;64.42;101473.53;4951825;29;20556;-51
2022/07/20 04:56:09;;;;;;;10.57;5.43;;;;;;;21.25;64.37;101468.59;4951842;29;20210;-52
2022/07/20 04:58:35;;;;;;;8.45;5.38;;;;;;;21.32;64.81;101464.47;4951983;29;20254;-50
2022/07/20 05:01:01;;;;;;;10.40;5.00;;;;;;;21.44;64.06;101462.72;4952245;29;20265;-50
2022/07/20 05:03:26;;;;;;;8.05;5.30;;;;;;;21.55;63.57;101462.78;4951599;29;20296;-49
2022/07/20 05:05:52;;;;;;;6.18;4.90;;;;;;;21.59;63.67;101467.03;4952307;29;20194;-52
2022/07/20 05:08:17;;;;;;;5.32;4.82;;;;;;;21.70;63.72;101452.59;4934848;29;20538;-50
2022/07/20 05:10:43;;;;;;;7.55;5.25;;;;;;;21.78;62.90;101456.47;4951512;29;20206;-50
2022/07/20 05:13:08;;;;;;;7.00;5.20;;;;;;;21.85;62.82;101445.97;4952050;29;20289;-50
2022/07/20 05:15:34;;;;;;;7.57;4.80;;;;;;;21.97;62.28;101449.59;4951931;29;20591;-45
2022/07/20 05:17:59;;;;;;;6.10;5.50;;;;;;;22.00;62.14;101450.25;4951894;29;20182;-46
2022/07/20 05:20:25;;;;;;;9.07;5.15;;;;;;;22.02;62.61;101459.19;4952234;29;20548;-44
2022/07/20 05:22:50;;;;;;;5.93;5.25;;;;;;;22.14;61.72;101451.03;4951802;29;20500;-46
2022/07/20 05:25:15;;;;;;;6.85;5.07;;;;;;;22.14;61.80;101441.00;4950745;29;20280;-46
2022/07/20 05:27:41;;;;;;;5.82;5.07;;;;;;;22.26;61.61;101450.13;4952349;28;20190;-47
2022/07/20 05:30:07;;;;;;;6.30;4.40;;;;;;;22.39;61.06;101448.19;4951681;29;20198;-46
2022/07/20 05:32:33;;;;;;;7.97;5.35;;;;;;;22.40;61.27;101447.19;4951728;29;20183;-46
2022/07/20 05:34:58;;;;;;;7.70;5.43;;;;;;;22.41;60.93;101442.59;4951283;29;20194;-45
2022/07/20 05:37:23;;;;;;;5.25;4.75;;;;;;;22.50;60.99;101433.69;4951998;29;20600;-46
2022/07/20 05:39:49;;;;;;;7.95;4.90;;;;;;;22.61;61.15;101432.84;4951605;29;20753;-46
2022/07/20 05:42:14;;;;;;;7.05;4.68;;;;;;;22.75;60.88;101440.78;4951725;29;20182;-45
2022/07/20 05:44:40;;;;;;;7.13;5.28;;;;;;;22.80;60.38;101437.69;4951240;29;20184;-45
2022/07/20 05:47:09;;;;;;;9.45;5.28;;;;;;;22.86;59.41;101431.72;4951779;29;20212;-47
2022/07/20 05:49:35;;;;;;;5.30;4.80;;;;;;;23.01;59.29;101429.66;4952234;28;20198;-46
2022/07/20 05:52:02;;;;;;;11.30;4.97;;;;;;;23.11;59.72;101440.69;4953025;28;20193;-44
2022/07/20 05:54:28;;;;;;;7.20;5.00;;;;;;;23.12;59.28;101439.72;4954613;29;20277;-45
2022/07/20 05:56:53;;;;;;;6.30;4.88;;;;;;;23.25;58.82;101440.44;4955466;29;20249;-47
2022/07/20 05:59:19;;;;;;;6.30;5.15;;;;;;;23.28;58.54;101440.19;4955342;29;20636;-45
2022/07/20 06:01:45;;;;;;;7.25;5.15;;;;;;;23.35;58.35;101440.53;4955569;29;20189;-45
2022/07/20 06:04:11;;;;;;;8.25;5.28;;;;;;;23.50;57.78;101442.00;4955487;29;20257;-47
2022/07/20 06:06:37;;;;;;;5.85;4.45;;;;;;;23.61;57.87;101443.84;4955133;29;20238;-46
2022/07/20 06:09:04;;;;;;;7.28;4.80;;;;;;;23.71;57.52;101444.81;4955316;29;20300;-44
2022/07/20 06:11:30;;;;;;;5.22;4.60;;;;;;;23.92;56.54;101442.19;4955413;29;20182;-46
2022/07/20 06:13:56;;;;;;;10.38;4.88;;;;;;;24.04;56.59;101440.25;4954917;29;20169;-46
2022/07/20 06:16:21;;;;;;;6.75;4.75;;;;;;;24.21;56.11;101436.06;4955038;29;20599;-44
2022/07/20 06:18:47;;;;;;;8.80;4.63;;;;;;;24.36;55.54;101440.22;4954970;29;20253;-47
2022/07/20 06:21:14;;;;;;;9.15;4.78;;;;;;;24.58;54.97;101431.03;4955001;29;20236;-47
2022/07/20 06:23:40;;;;;;;9.15;5.20;;;;;;;24.54;55.62;101429.56;4954106;29;20627;-47
2022/07/20 06:26:06;;;;;;;7.13;4.68;;;;;;;24.88;54.74;101427.44;4955094;29;20216;-46
2022/07/20 06:28:32;;;;;;;11.43;5.28;;;;;;;24.96;54.22;101434.94;4954604;29;20170;-46
2022/07/20 06:30:57;;;;;;;8.35;4.68;;;;;;;25.33;53.86;101428.06;4955228;29;20188;-46
2022/07/20 06:33:23;;;;;;;8.00;4.95;;;;;;;25.20;53.42;101429.16;4954655;29;20222;-46
2022/07/20 06:35:48;;;;;;;6.60;5.10;;;;;;;25.39;52.87;101430.25;4954626;29;20204;-44
2022/07/20 06:38:14;;;;;;;7.20;4.90;;;;;;;25.67;52.54;101431.28;4954640;29;20213;-47
2022/07/20 06:40:39;;;;;;;9.05;5.03;;;;;;;25.70;51.61;101433.75;4954705;29;20210;-46
2022/07/20 06:43:05;;;;;;;5.35;4.40;;;;;;;26.07;52.42;101430.34;4954466;29;20174;-47
2022/07/20 06:45:30;;;;;;;7.57;4.95;;;;;;;26.32;51.05;101426.09;4921858;29;20194;-47
2022/07/20 06:47:55;;;;;;;10.27;5.00;;;;;;;26.39;50.79;101432.78;4954631;29;20167;-46
2022/07/20 06:50:21;;;;;;;7.82;5.00;;;;;;;26.41;50.28;101435.34;4954891;29;20190;-47
2022/07/20 06:52:47;;;;;;;10.10;4.50;;;;;;;26.50;50.62;101435.34;4954519;29;20174;-46
2022/07/20 06:55:12;;;;;;;8.38;5.10;;;;;;;26.69;49.70;101439.09;4954126;29;20189;-46
2022/07/20 06:57:37;;;;;;;7.47;4.70;;;;;;;26.77;50.20;101435.59;4954813;29;20658;-45
2022/07/20 07:00:05;;;;;;;6.07;4.65;;;;;;;26.80;49.45;101441.66;4954647;28;20210;-47
2022/07/20 07:02:31;;;;;;;6.72;4.97;;;;;;;27.19;49.09;101438.75;4954282;28;20190;-47
2022/07/20 07:04:56;;;;;;;7.13;4.45;;;;;;;26.98;48.66;101438.13;4968425;28;20186;-46
2022/07/20 07:07:22;;;;;;;6.55;4.85;;;;;;;27.09;48.62;101441.56;4954096;29;20201;-45
2022/07/20 07:09:47;;;;;;;9.75;4.53;;;;;;;27.22;48.25;101438.50;4954387;29;20229;-44
2022/07/20 07:12:13;;;;;;;6.75;4.82;;;;;;;27.20;48.93;101446.00;4968772;28;20175;-47
2022/07/20 07:14:38;;;;;;;6.53;4.28;;;;;;;27.42;48.17;101430.09;4953686;29;20186;-45
2022/07/20 07:17:04;;;;;;;5.40;4.10;;;;;;;27.68;48.44;101435.72;4936900;29;20163;-44
2022/07/20 07:19:29;;;;;;;6.68;4.50;;;;;;;27.91;47.51;101430.66;4954268;29;20204;-44
2022/07/20 07:21:55;;;;;;;9.27;4.45;;;;;;;28.04;46.86;101433.03;4954080;28;20217;-47
2022/07/20 07:24:20;;;;;;;13.60;4.78;;;;;;;28.35;46.63;101431.56;4953226;29;20198;-47
2022/07/20 07:26:46;;;;;;;10.20;4.63;;;;;;;28.43;46.53;101430.78;4953939;29;20220;-47
2022/07/20 07:29:11;;;;;;;11.88;4.93;;;;;;;28.27;46.78;101430.63;4953569;29;20316;-46
2022/07/20 07:31:37;;;;;;;9.65;4.65;;;;;;;28.34;45.98;101417.97;4953869;29;20270;-47
2022/07/20 07:34:02;;;;;;;9.63;4.63;;;;;;;28.48;46.06;101425.66;4953568;29;20428;-45
2022/07/20 07:36:28;;;;;;;8.23;4.63;;;;;;;28.73;46.63;101418.44;4953912;28;20527;-46
2022/07/20 07:38:53;;;;;;;6.35;4.80;;;;;;;28.75;45.59;101416.38;4953138;29;20198;-46
2022/07/20 07:41:19;;;;;;;8.10;4.57;;;;;;;29.01;45.82;101418.22;4952913;29;20190;-46
2022/07/20 07:43:44;;;;;;;8.82;4.70;;;;;;;29.14;45.68;101413.13;4953246;29;20666;-46
2022/07/20 07:46:10;;;;;;;6.20;4.55;;;;;;;29.16;45.04;101407.44;4953533;28;20206;-46
2022/07/20 07:48:35;;;;;;;7.65;4.35;;;;;;;29.13;44.92;101421.59;4953281;28;20238;-46
2022/07/20 07:51:01;;;;;;;6.50;4.60;;;;;;;29.47;45.27;101416.00;4954074;29;20181;-46
2022/07/20 07:53:26;;;;;;;6.10;3.95;;;;;;;29.41;44.08;101410.28;4934627;29;20190;-46
2022/07/20 07:55:52;;;;;;;12.07;4.13;;;;;;;29.76;44.07;101411.97;4953578;29;20205;-47
2022/07/20 07:58:18;;;;;;;5.70;4.32;;;;;;;29.77;44.05;101411.78;4953493;28;20297;-45
2022/07/20 08:00:43;;;;;;;9.38;4.22;;;;;;;29.76;43.97;101421.13;4953321;28;20257;-45
2022/07/20 08:03:09;;;;;;;9.88;4.22;;;;;;;30.07;43.92;101414.06;4953192;29;20627;-46
2022/07/20 08:05:35;;;;;;;9.18;4.60;;;;;;;30.16;43.21;101407.50;4952916;29;20210;-46
2022/07/20 08:08:05;;;;;;;7.97;4.10;;;;;;;30.45;43.27;101401.44;4953193;28;20253;-44
2022/07/20 08:10:31;;;;;;;4.88;3.83;;;;;;;30.55;42.36;101409.56;4952536;28;20637;-45
2022/07/20 08:12:56;;;;;;;7.32;3.97;;;;;;;31.00;42.81;101408.06;4952632;29;20202;-45
2022/07/20 08:15:22;;;;;;;7.45;4.30;;;;;;;31.02;42.04;101413.44;4952277;28;20592;-47
2022/07/20 08:17:47;;;;;;;12.35;3.78;;;;;;;31.03;41.41;101415.13;4952808;29;20234;-46
2022/07/20 08:20:13;;;;;;;6.85;4.15;;;;;;;30.83;41.46;101403.59;4952649;28;20210;-45
2022/07/20 08:22:39;;;;;;;6.63;4.47;;;;;;;30.93;41.76;101399.63;4952944;29;20185;-45
2022/07/20 08:25:05;;;;;;;9.10;3.95;;;;;;;31.18;40.91;101402.28;4952447;29;20686;-46
2022/07/20 08:27:30;;;;;;;8.70;4.50;;;;;;;31.50;41.18;101397.66;4953023;29;20296;-46
2022/07/20 08:29:58;;;;;;;10.55;4.38;;;;;;;31.54;40.22;101394.31;4952468;28;20201;-47
2022/07/20 08:32:26;;;;;;;9.35;3.72;;;;;;;31.39;40.57;101390.56;4952766;29;20177;-45
2022/07/20 08:34:52;;;;;;;5.20;4.07;;;;;;;31.88;40.37;101392.19;4952269;29;20167;-48
2022/07/20 08:37:19;;;;;;;6.18;4.30;;;;;;;32.17;40.34;101388.69;4952470;29;20643;-46
2022/07/20 08:39:44;;;;;;;4.90;3.78;;;;;;;32.26;39.73;101393.09;4952968;28;20347;-47
2022/07/20 08:42:10;;;;;;;6.85;4.00;;;;;;;32.38;39.38;101385.19;4952449;29;20170;-46
2022/07/20 08:44:36;;;;;;;5.32;3.92;;;;;;;32.29;38.68;101395.50;4952336;29;20550;-47
2022/07/20 08:47:01;;;;;;;7.00;4.03;;;;;;;32.57;38.23;101394.91;4951026;29;20269;-47
2022/07/20 08:49:28;;;;;;;4.80;4.07;;;;;;;32.64;38.31;101391.16;4953055;28;20209;-50
2022/07/20 08:51:53;;;;;;;11.50;4.03;;;;;;;32.56;38.62;101395.94;4952523;29;20720;-49
2022/07/20 08:54:19;;;;;;;5.03;3.97;;;;;;;32.80;37.97;101394.84;4951493;29;20182;-49
2022/07/20 08:56:45;;;;;;;5.03;3.53;;;;;;;32.98;38.16;101388.88;4935141;29;20554;-48
2022/07/20 08:59:10;;;;;;;8.45;4.00;;;;;;;33.08;38.12;101385.81;4952109;28;20627;-47
2022/07/20 09:01:56;;;;;;;6.75;3.72;;;;;;;32.73;37.88;101391.94;4952238;29;20627;-47
2022/07/20 09:04:21;;;;;;;5.50;3.95;;;;;;;32.73;38.46;101396.63;4969545;28;20642;-46
2022/07/20 09:06:49;;;;;;;6.90;4.25;;;;;;;32.66;37.11;101395.69;4970905;28;20202;-46
2022/07/20 09:09:16;;;;;;;7.57;4.22;;;;;;;32.51;37.35;101398.41;4971551;28;20253;-46
2022/07/20 09:11:42;;;;;;;6.35;3.92;;;;;;;33.18;38.87;101390.03;4971292;28;20587;-48
2022/07/20 09:14:07;;;;;;;6.05;4.07;;;;;;;32.87;37.03;101389.38;4970803;28;20185;-46
2022/07/20 09:16:46;;;;;;;7.88;3.78;;;;;;;32.59;38.16;101395.56;4971047;28;20578;-48
2022/07/20 09:19:16;;;;;;;5.95;4.20;;;;;;;33.07;36.94;101387.75;4971058;28;20193;-47
2022/07/20 09:21:41;;;;;;;6.05;4.00;;;;;;;33.16;37.82;101394.91;4971289;28;20204;-46
2022/07/20 09:24:09;;;;;;;8.57;4.20;;;;;;;33.24;38.49;101399.50;4955432;28;20221;-48
2022/07/20 09:26:36;;;;;;;4.70;3.88;;;;;;;33.05;36.39;101382.34;4951572;28;20204;-48
2022/07/20 09:29:05;;;;;;;6.07;4.13;;;;;;;33.34;36.64;101386.16;4951916;29;20273;-48
2022/07/20 09:31:34;;;;;;;6.10;3.47;;;;;;;33.30;36.07;101384.81;4952023;29;20169;-48
2022/07/20 09:34:14;;;;;;;5.80;3.70;;;;;;;33.13;36.16;101372.25;4951598;29;20801;-45
2022/07/20 09:36:45;;;;;;;7.10;3.55;;;;;;;33.20;36.76;101374.03;4952044;29;20237;-45
2022/07/20 09:39:21;;;;;;;4.65;3.55;;;;;;;33.56;36.60;101380.63;4951570;29;20316;-44
2022/07/20 09:41:57;;;;;;;7.57;3.80;;;;;;;33.83;36.95;101381.81;4952239;29;20287;-44
2022/07/20 09:44:27;;;;;;;8.13;3.92;;;;;;;33.82;36.41;101367.03;4951292;29;20185;-46
2022/07/20 09:46:53;;;;;;;9.43;4.07;;;;;;;34.16;36.06;101364.59;4952068;29;20194;-46
2022/07/20 09:49:21;;;;;;;8.55;3.53;;;;;;;33.89;35.69;101363.47;4951865;29;20677;-45
2022/07/20 09:51:56;;;;;;;4.03;3.63;;;;;;;34.34;34.58;101361.31;4951727;29;20435;-46
2022/07/20 09:54:21;;;;;;;4.80;3.40;;;;;;;34.00;34.82;101363.81;4951329;29;20178;-46
2022/07/20 09:56:49;;;;;;;4.22;3.63;;;;;;;34.31;35.37;101361.69;4951597;29;20171;-44
2022/07/20 09:59:15;;;;;;;7.00;3.90;;;;;;;34.45;35.17;101356.03;4951820;29;20321;-47
2022/07/20 10:01:44;;;;;;;12.35;10.27;;;;;;;34.90;34.67;101354.81;4951456;29;20170;-46
2022/07/20 10:04:11;;;;;;;6.80;3.92;;;;;;;34.38;34.27;101360.69;4951291;29;20587;-46
2022/07/20 10:06:39;;;;;;;7.38;4.10;;;;;;;33.96;34.74;101362.47;4951684;29;20206;-47
2022/07/20 10:09:05;;;;;;;7.47;3.30;;;;;;;34.06;34.57;101374.09;4951366;29;20270;-46
2022/07/20 10:11:32;;;;;;;6.30;3.88;;;;;;;34.02;34.75;101363.59;4952039;29;20220;-44
2022/07/20 10:14:03;;;;;;;6.22;3.72;;;;;;;34.06;34.76;101362.13;4951176;29;20197;-44
2022/07/20 10:16:44;;;;;;;7.15;4.00;;;;;;;34.25;34.72;101360.59;4952447;29;20282;-45
2022/07/20 10:19:10;;;;;;;6.68;4.05;;;;;;;34.75;34.62;101366.13;4951838;29;20261;-44
2022/07/20 10:21:48;;;;;;;9.07;3.70;;;;;;;34.84;34.35;101362.09;4951663;29;20570;-46
2022/07/20 10:24:30;;;;;;;6.63;3.72;;;;;;;34.94;34.57;101356.13;4951285;29;20204;-45
2022/07/20 10:27:18;;;;;;;6.40;3.22;;;;;;;34.92;34.16;101361.91;4951505;29;20186;-44
2022/07/20 10:29:48;;;;;;;11.18;3.63;;;;;;;34.94;33.51;101358.91;4951618;29;20241;-46
2022/07/20 10:32:25;;;;;;;5.38;3.50;;;;;;;35.24;33.12;101357.56;4951530;29;20186;-47
2022/07/20 10:34:58;;;;;;;4.57;3.33;;;;;;;34.86;34.08;101355.25;4951187;29;20182;-46
2022/07/20 10:37:26;;;;;;;6.05;3.75;;;;;;;34.88;32.99;101355.91;4951862;28;20202;-46
2022/07/20 10:40:12;;;;;;;6.18;3.40;;;;;;;35.01;33.87;101351.47;4954875;29;20285;-45
2022/07/20 10:42:48;;;;;;;5.45;3.47;;;;;;;34.82;33.42;101345.56;4955604;29;20178;-46
2022/07/20 10:45:19;;;;;;;5.40;3.35;;;;;;;35.30;33.54;101350.31;4954788;29;20170;-45
2022/07/20 10:48:03;;;;;;;4.95;3.60;;;;;;;35.18;33.61;101354.75;4954960;29;20558;-46
2022/07/20 10:50:32;;;;;;;5.43;3.50;;;;;;;35.26;33.21;101357.38;4954678;28;20261;-45
2022/07/20 10:53:11;;;;;;;10.60;3.63;;;;;;;35.03;33.39;101355.75;4954465;29;20198;-45
2022/07/20 10:55:36;;;;;;;5.35;3.28;;;;;;;35.31;33.02;101352.00;4954827;28;20642;-45
2022/07/20 10:58:13;;;;;;;5.30;3.45;;;;;;;35.32;32.70;101352.91;4954874;29;20170;-44
2022/07/20 11:00:59;;;;;;;9.50;3.65;;;;;;;35.08;32.99;101347.63;4954735;29;20277;-46
2022/07/20 11:03:49;;;;;;;4.28;3.63;;;;;;;35.33;33.37;101360.16;4953694;28;20228;-44
2022/07/20 11:06:19;;;;;;;4.85;3.40;;;;;;;35.60;31.87;101348.03;4942314;29;20233;-44
2022/07/20 11:08:57;;;;;;;5.90;3.70;;;;;;;35.93;32.90;101358.38;4954201;29;20235;-45
2022/07/20 11:11:27;;;;;;;5.68;3.17;;;;;;;35.60;32.35;101350.81;4954255;28;20196;-45
2022/07/20 11:13:52;;;;;;;4.75;3.25;;;;;;;35.76;31.94;101357.09;4953411;29;20268;-45
2022/07/20 11:16:26;;;;;;;3.65;3.17;;;;;;;35.75;31.73;101358.13;4954497;29;20262;-46
2022/07/20 11:18:53;;;;;;;5.82;3.55;;;;;;;36.13;31.67;101360.34;4954644;29;20163;-45
2022/07/20 11:21:31;;;;;;;4.30;3.40;;;;;;;35.72;32.69;101353.84;4954337;29;20202;-42
2022/07/20 11:23:57;;;;;;;8.98;3.72;;;;;;;35.58;31.89;101361.31;4936724;29;20242;-44
2022/07/20 11:26:22;;;;;;;7.15;3.72;;;;;;;35.56;32.66;101355.09;4954105;29;20189;-44